sensor_id;sensor_type;location;lat;lon;timestamp;P1;durP1;ratioP1;P2;durP2;ratioP2
55222;SDS011;41090;48.632;12.428;2024-01-30T00:02:16;22.57;;;17.20;;
55222;SDS011;41090;48.632;12.428;2024-01-30T00:04:41;24.03;;;16.77;;
55222;SDS011;41090;48.632;12.428;2024-01-30T00:07:07;22.43;;;17.63;;
55222;SDS011;41090;48.632;12.428;2024-01-30T00:09:32;23.03;;;17.67;;
55222;SDS011;41090;48.632;12.428;2024-01-30T00:11:57;27.40;;;19.43;;
55222;SDS011;41090;48.632;12.428;2024-01-30T00:14:23;22.77;;;18.57;;
55222;SDS011;41090;48.632;12.428;2024-01-30T00:16:48;23.43;;;17.67;;
55222;SDS011;41090;48.632;12.428;2024-01-30T00:19:14;26.70;;;18.37;;
55222;SDS011;41090;48.632;12.428;2024-01-30T00:21:39;24.17;;;17.67;;
55222;SDS011;41090;48.632;12.428;2024-01-30T00:24:04;22.73;;;17.30;;
55222;SDS011;41090;48.632;12.428;2024-01-30T00:26:29;22.07;;;17.30;;
55222;SDS011;41090;48.632;12.428;2024-01-30T00:28:54;26.33;;;18.77;;
55222;SDS011;41090;48.632;12.428;2024-01-30T00:31:20;22.27;;;17.87;;
55222;SDS011;41090;48.632;12.428;2024-01-30T00:33:45;27.13;;;19.10;;
55222;SDS011;41090;48.632;12.428;2024-01-30T00:36:10;30.43;;;20.90;;
55222;SDS011;41090;48.632;12.428;2024-01-30T00:38:36;30.17;;;20.93;;
55222;SDS011;41090;48.632;12.428;2024-01-30T00:41:01;29.60;;;21.63;;
55222;SDS011;41090;48.632;12.428;2024-01-30T00:43:29;30.33;;;20.87;;
55222;SDS011;41090;48.632;12.428;2024-01-30T00:45:56;28.23;;;21.60;;
55222;SDS011;41090;48.632;12.428;2024-01-30T00:48:21;30.57;;;21.57;;
55222;SDS011;41090;48.632;12.428;2024-01-30T00:50:46;27.27;;;18.87;;
55222;SDS011;41090;48.632;12.428;2024-01-30T00:53:11;27.33;;;19.43;;
55222;SDS011;41090;48.632;12.428;2024-01-30T00:55:37;27.67;;;19.30;;
55222;SDS011;41090;48.632;12.428;2024-01-30T00:58:02;27.03;;;20.20;;
55222;SDS011;41090;48.632;12.428;2024-01-30T01:00:28;30.53;;;19.97;;
55222;SDS011;41090;48.632;12.428;2024-01-30T01:02:57;29.03;;;21.10;;
55222;SDS011;41090;48.632;12.428;2024-01-30T01:05:22;26.63;;;19.27;;
55222;SDS011;41090;48.632;12.428;2024-01-30T01:07:48;28.50;;;20.20;;
55222;SDS011;41090;48.632;12.428;2024-01-30T01:10:13;25.10;;;18.90;;
55222;SDS011;41090;48.632;12.428;2024-01-30T01:12:39;23.83;;;18.70;;
55222;SDS011;41090;48.632;12.428;2024-01-30T01:15:04;29.17;;;19.13;;
55222;SDS011;41090;48.632;12.428;2024-01-30T01:17:30;26.07;;;19.20;;
55222;SDS011;41090;48.632;12.428;2024-01-30T01:19:55;24.17;;;18.07;;
55222;SDS011;41090;48.632;12.428;2024-01-30T01:22:20;24.20;;;18.63;;
55222;SDS011;41090;48.632;12.428;2024-01-30T01:24:45;23.67;;;17.00;;
55222;SDS011;41090;48.632;12.428;2024-01-30T01:27:11;24.70;;;17.83;;
55222;SDS011;41090;48.632;12.428;2024-01-30T01:29:36;24.63;;;18.60;;
55222;SDS011;41090;48.632;12.428;2024-01-30T01:32:01;22.77;;;17.60;;
55222;SDS011;41090;48.632;12.428;2024-01-30T01:34:27;23.57;;;17.80;;
55222;SDS011;41090;48.632;12.428;2024-01-30T01:36:52;23.40;;;18.50;;
55222;SDS011;41090;48.632;12.428;2024-01-30T01:39:20;26.07;;;18.90;;
55222;SDS011;41090;48.632;12.428;2024-01-30T01:41:45;23.87;;;18.20;;
55222;SDS011;41090;48.632;12.428;2024-01-30T01:44:10;22.53;;;18.23;;
55222;SDS011;41090;48.632;12.428;2024-01-30T01:46:35;25.30;;;18.63;;
55222;SDS011;41090;48.632;12.428;2024-01-30T01:49:02;24.40;;;18.70;;
55222;SDS011;41090;48.632;12.428;2024-01-30T01:51:27;24.30;;;18.60;;
55222;SDS011;41090;48.632;12.428;2024-01-30T01:53:53;24.27;;;19.07;;
55222;SDS011;41090;48.632;12.428;2024-01-30T01:56:18;28.23;;;18.80;;
55222;SDS011;41090;48.632;12.428;2024-01-30T01:58:44;23.93;;;18.53;;
55222;SDS011;41090;48.632;12.428;2024-01-30T02:01:11;25.30;;;18.90;;
55222;SDS011;41090;48.632;12.428;2024-01-30T02:03:37;26.33;;;18.83;;
55222;SDS011;41090;48.632;12.428;2024-01-30T02:06:02;25.40;;;18.00;;
55222;SDS011;41090;48.632;12.428;2024-01-30T02:08:28;23.70;;;18.80;;
55222;SDS011;41090;48.632;12.428;2024-01-30T02:10:53;23.30;;;17.20;;
55222;SDS011;41090;48.632;12.428;2024-01-30T02:13:20;25.87;;;19.30;;
55222;SDS011;41090;48.632;12.428;2024-01-30T02:15:48;22.40;;;17.37;;
55222;SDS011;41090;48.632;12.428;2024-01-30T02:18:15;24.70;;;18.17;;
55222;SDS011;41090;48.632;12.428;2024-01-30T02:20:40;26.90;;;18.20;;
55222;SDS011;41090;48.632;12.428;2024-01-30T02:23:06;26.40;;;19.20;;
55222;SDS011;41090;48.632;12.428;2024-01-30T02:25:39;26.37;;;19.30;;
55222;SDS011;41090;48.632;12.428;2024-01-30T02:28:09;26.60;;;19.17;;
55222;SDS011;41090;48.632;12.428;2024-01-30T02:30:34;25.13;;;18.77;;
55222;SDS011;41090;48.632;12.428;2024-01-30T02:32:59;24.03;;;18.80;;
55222;SDS011;41090;48.632;12.428;2024-01-30T02:35:24;22.13;;;17.93;;
55222;SDS011;41090;48.632;12.428;2024-01-30T02:37:50;26.37;;;18.27;;
55222;SDS011;41090;48.632;12.428;2024-01-30T02:40:15;23.43;;;17.00;;
55222;SDS011;41090;48.632;12.428;2024-01-30T02:42:40;23.20;;;17.83;;
55222;SDS011;41090;48.632;12.428;2024-01-30T02:45:06;23.93;;;17.87;;
55222;SDS011;41090;48.632;12.428;2024-01-30T02:47:32;23.23;;;18.10;;
55222;SDS011;41090;48.632;12.428;2024-01-30T02:49:57;33.03;;;19.17;;
55222;SDS011;41090;48.632;12.428;2024-01-30T02:52:22;25.87;;;19.27;;
55222;SDS011;41090;48.632;12.428;2024-01-30T02:54:47;28.13;;;19.80;;
55222;SDS011;41090;48.632;12.428;2024-01-30T02:57:12;25.53;;;18.20;;
55222;SDS011;41090;48.632;12.428;2024-01-30T02:59:38;27.33;;;18.67;;
55222;SDS011;41090;48.632;12.428;2024-01-30T03:02:03;25.13;;;18.73;;
55222;SDS011;41090;48.632;12.428;2024-01-30T03:04:28;27.97;;;18.40;;
55222;SDS011;41090;48.632;12.428;2024-01-30T03:06:55;25.07;;;17.80;;
55222;SDS011;41090;48.632;12.428;2024-01-30T03:09:20;23.00;;;18.67;;
55222;SDS011;41090;48.632;12.428;2024-01-30T03:11:45;23.67;;;17.73;;
55222;SDS011;41090;48.632;12.428;2024-01-30T03:14:10;23.73;;;16.67;;
55222;SDS011;41090;48.632;12.428;2024-01-30T03:16:36;23.83;;;17.60;;
55222;SDS011;41090;48.632;12.428;2024-01-30T03:19:01;23.00;;;17.90;;
55222;SDS011;41090;48.632;12.428;2024-01-30T03:21:28;21.33;;;16.93;;
55222;SDS011;41090;48.632;12.428;2024-01-30T03:23:53;20.23;;;17.13;;
55222;SDS011;41090;48.632;12.428;2024-01-30T03:26:18;23.53;;;17.20;;
55222;SDS011;41090;48.632;12.428;2024-01-30T03:28:44;24.40;;;17.53;;
55222;SDS011;41090;48.632;12.428;2024-01-30T03:31:09;27.00;;;17.20;;
55222;SDS011;41090;48.632;12.428;2024-01-30T03:33:34;23.13;;;17.80;;
55222;SDS011;41090;48.632;12.428;2024-01-30T03:36:02;24.93;;;17.33;;
55222;SDS011;41090;48.632;12.428;2024-01-30T03:38:27;23.53;;;17.27;;
55222;SDS011;41090;48.632;12.428;2024-01-30T03:40:53;27.57;;;18.30;;
55222;SDS011;41090;48.632;12.428;2024-01-30T03:43:18;26.07;;;17.33;;
55222;SDS011;41090;48.632;12.428;2024-01-30T03:45:43;23.10;;;17.13;;
55222;SDS011;41090;48.632;12.428;2024-01-30T03:48:08;21.50;;;17.07;;
55222;SDS011;41090;48.632;12.428;2024-01-30T03:50:33;22.80;;;17.87;;
55222;SDS011;41090;48.632;12.428;2024-01-30T03:52:59;22.53;;;16.87;;
55222;SDS011;41090;48.632;12.428;2024-01-30T03:55:24;21.73;;;16.73;;
55222;SDS011;41090;48.632;12.428;2024-01-30T03:57:49;23.43;;;18.00;;
55222;SDS011;41090;48.632;12.428;2024-01-30T04:00:14;23.40;;;16.87;;
55222;SDS011;41090;48.632;12.428;2024-01-30T04:02:39;22.70;;;17.43;;
55222;SDS011;41090;48.632;12.428;2024-01-30T04:05:05;25.20;;;17.57;;
55222;SDS011;41090;48.632;12.428;2024-01-30T04:07:31;23.50;;;17.20;;
55222;SDS011;41090;48.632;12.428;2024-01-30T04:09:56;22.40;;;18.03;;
55222;SDS011;41090;48.632;12.428;2024-01-30T04:12:22;21.97;;;18.50;;
55222;SDS011;41090;48.632;12.428;2024-01-30T04:14:47;22.83;;;17.33;;
55222;SDS011;41090;48.632;12.428;2024-01-30T04:17:12;23.67;;;17.40;;
55222;SDS011;41090;48.632;12.428;2024-01-30T04:19:38;29.30;;;17.60;;
55222;SDS011;41090;48.632;12.428;2024-01-30T04:22:04;26.37;;;18.03;;
55222;SDS011;41090;48.632;12.428;2024-01-30T04:24:29;27.30;;;18.53;;
55222;SDS011;41090;48.632;12.428;2024-01-30T04:26:54;22.03;;;16.73;;
55222;SDS011;41090;48.632;12.428;2024-01-30T04:29:19;24.03;;;18.63;;
55222;SDS011;41090;48.632;12.428;2024-01-30T04:31:45;26.97;;;17.97;;
55222;SDS011;41090;48.632;12.428;2024-01-30T04:34:10;24.70;;;18.17;;
55222;SDS011;41090;48.632;12.428;2024-01-30T04:36:35;25.10;;;18.57;;
55222;SDS011;41090;48.632;12.428;2024-01-30T04:39:01;25.17;;;17.87;;
55222;SDS011;41090;48.632;12.428;2024-01-30T04:41:26;25.40;;;17.30;;
55222;SDS011;41090;48.632;12.428;2024-01-30T04:43:53;23.97;;;16.93;;
55222;SDS011;41090;48.632;12.428;2024-01-30T04:46:18;23.07;;;17.17;;
55222;SDS011;41090;48.632;12.428;2024-01-30T04:48:44;24.13;;;17.70;;
55222;SDS011;41090;48.632;12.428;2024-01-30T04:51:09;22.80;;;17.57;;
55222;SDS011;41090;48.632;12.428;2024-01-30T04:53:34;24.90;;;17.30;;
55222;SDS011;41090;48.632;12.428;2024-01-30T04:55:59;22.83;;;18.00;;
55222;SDS011;41090;48.632;12.428;2024-01-30T04:58:24;24.70;;;19.10;;
55222;SDS011;41090;48.632;12.428;2024-01-30T05:00:50;23.07;;;17.37;;
55222;SDS011;41090;48.632;12.428;2024-01-30T05:03:17;28.00;;;19.23;;
55222;SDS011;41090;48.632;12.428;2024-01-30T05:05:42;23.83;;;17.50;;
55222;SDS011;41090;48.632;12.428;2024-01-30T05:08:07;25.83;;;18.37;;
55222;SDS011;41090;48.632;12.428;2024-01-30T05:10:33;24.97;;;19.00;;
55222;SDS011;41090;48.632;12.428;2024-01-30T05:12:58;23.80;;;18.30;;
55222;SDS011;41090;48.632;12.428;2024-01-30T05:15:23;24.90;;;18.77;;
55222;SDS011;41090;48.632;12.428;2024-01-30T05:17:48;27.97;;;20.97;;
55222;SDS011;41090;48.632;12.428;2024-01-30T05:20:14;26.33;;;20.67;;
55222;SDS011;41090;48.632;12.428;2024-01-30T05:22:39;28.53;;;21.17;;
55222;SDS011;41090;48.632;12.428;2024-01-30T05:25:09;29.63;;;23.40;;
55222;SDS011;41090;48.632;12.428;2024-01-30T05:27:35;32.43;;;23.80;;
55222;SDS011;41090;48.632;12.428;2024-01-30T05:30:00;30.20;;;22.67;;
55222;SDS011;41090;48.632;12.428;2024-01-30T05:32:25;29.63;;;23.23;;
55222;SDS011;41090;48.632;12.428;2024-01-30T05:34:50;35.23;;;23.47;;
55222;SDS011;41090;48.632;12.428;2024-01-30T05:37:16;34.03;;;24.07;;
55222;SDS011;41090;48.632;12.428;2024-01-30T05:39:42;29.63;;;23.03;;
55222;SDS011;41090;48.632;12.428;2024-01-30T05:42:08;30.47;;;23.93;;
55222;SDS011;41090;48.632;12.428;2024-01-30T05:44:35;36.83;;;25.47;;
55222;SDS011;41090;48.632;12.428;2024-01-30T05:47:00;32.83;;;24.73;;
55222;SDS011;41090;48.632;12.428;2024-01-30T05:49:25;33.33;;;24.90;;
55222;SDS011;41090;48.632;12.428;2024-01-30T05:51:50;32.20;;;23.87;;
55222;SDS011;41090;48.632;12.428;2024-01-30T05:54:15;36.83;;;24.07;;
55222;SDS011;41090;48.632;12.428;2024-01-30T05:56:41;36.70;;;26.20;;
55222;SDS011;41090;48.632;12.428;2024-01-30T05:59:06;36.23;;;25.47;;
55222;SDS011;41090;48.632;12.428;2024-01-30T06:01:31;34.50;;;24.80;;
55222;SDS011;41090;48.632;12.428;2024-01-30T06:03:57;32.63;;;24.33;;
55222;SDS011;41090;48.632;12.428;2024-01-30T06:06:22;32.83;;;24.50;;
55222;SDS011;41090;48.632;12.428;2024-01-30T06:08:47;32.00;;;23.53;;
55222;SDS011;41090;48.632;12.428;2024-01-30T06:11:12;34.30;;;26.40;;
55222;SDS011;41090;48.632;12.428;2024-01-30T06:13:37;35.80;;;27.07;;
55222;SDS011;41090;48.632;12.428;2024-01-30T06:16:03;37.10;;;26.90;;
55222;SDS011;41090;48.632;12.428;2024-01-30T06:18:28;39.20;;;27.23;;
55222;SDS011;41090;48.632;12.428;2024-01-30T06:20:55;41.97;;;29.63;;
55222;SDS011;41090;48.632;12.428;2024-01-30T06:23:20;42.20;;;30.00;;
55222;SDS011;41090;48.632;12.428;2024-01-30T06:25:45;39.50;;;29.97;;
55222;SDS011;41090;48.632;12.428;2024-01-30T06:28:11;39.57;;;30.33;;
55222;SDS011;41090;48.632;12.428;2024-01-30T06:30:36;37.63;;;29.40;;
55222;SDS011;41090;48.632;12.428;2024-01-30T06:33:01;40.83;;;29.63;;
55222;SDS011;41090;48.632;12.428;2024-01-30T06:35:26;39.00;;;29.30;;
55222;SDS011;41090;48.632;12.428;2024-01-30T06:37:53;39.07;;;30.43;;
55222;SDS011;41090;48.632;12.428;2024-01-30T06:40:19;42.30;;;30.00;;
55222;SDS011;41090;48.632;12.428;2024-01-30T06:42:44;39.07;;;28.83;;
55222;SDS011;41090;48.632;12.428;2024-01-30T06:45:09;39.40;;;29.17;;
55222;SDS011;41090;48.632;12.428;2024-01-30T06:47:34;38.50;;;27.97;;
55222;SDS011;41090;48.632;12.428;2024-01-30T06:50:00;39.43;;;27.53;;
55222;SDS011;41090;48.632;12.428;2024-01-30T06:52:27;36.43;;;26.40;;
55222;SDS011;41090;48.632;12.428;2024-01-30T06:54:52;37.77;;;28.47;;
55222;SDS011;41090;48.632;12.428;2024-01-30T06:57:17;32.97;;;25.93;;
55222;SDS011;41090;48.632;12.428;2024-01-30T06:59:42;38.53;;;28.53;;
55222;SDS011;41090;48.632;12.428;2024-01-30T07:02:09;36.73;;;27.97;;
55222;SDS011;41090;48.632;12.428;2024-01-30T07:04:34;37.67;;;28.53;;
55222;SDS011;41090;48.632;12.428;2024-01-30T07:07:00;41.50;;;28.57;;
55222;SDS011;41090;48.632;12.428;2024-01-30T07:09:25;38.23;;;28.27;;
55222;SDS011;41090;48.632;12.428;2024-01-30T07:11:51;36.27;;;27.73;;
55222;SDS011;41090;48.632;12.428;2024-01-30T07:14:16;35.97;;;27.10;;
55222;SDS011;41090;48.632;12.428;2024-01-30T07:16:42;35.63;;;28.03;;
55222;SDS011;41090;48.632;12.428;2024-01-30T07:19:07;36.30;;;28.60;;
55222;SDS011;41090;48.632;12.428;2024-01-30T07:21:34;39.37;;;28.87;;
55222;SDS011;41090;48.632;12.428;2024-01-30T07:23:59;33.70;;;28.03;;
55222;SDS011;41090;48.632;12.428;2024-01-30T07:26:24;36.90;;;27.93;;
55222;SDS011;41090;48.632;12.428;2024-01-30T07:28:50;37.90;;;27.77;;
55222;SDS011;41090;48.632;12.428;2024-01-30T07:31:15;33.77;;;27.70;;
55222;SDS011;41090;48.632;12.428;2024-01-30T07:33:41;33.20;;;27.40;;
55222;SDS011;41090;48.632;12.428;2024-01-30T07:36:06;32.90;;;26.43;;
55222;SDS011;41090;48.632;12.428;2024-01-30T07:38:33;31.93;;;25.63;;
55222;SDS011;41090;48.632;12.428;2024-01-30T07:40:58;31.93;;;26.17;;
55222;SDS011;41090;48.632;12.428;2024-01-30T07:43:23;34.73;;;26.07;;
55222;SDS011;41090;48.632;12.428;2024-01-30T07:45:49;33.70;;;25.83;;
55222;SDS011;41090;48.632;12.428;2024-01-30T07:48:14;36.47;;;28.17;;
55222;SDS011;41090;48.632;12.428;2024-01-30T07:50:39;34.97;;;28.00;;
55222;SDS011;41090;48.632;12.428;2024-01-30T07:53:04;36.37;;;28.23;;
55222;SDS011;41090;48.632;12.428;2024-01-30T07:55:29;30.97;;;27.27;;
55222;SDS011;41090;48.632;12.428;2024-01-30T07:57:56;33.27;;;27.60;;
55222;SDS011;41090;48.632;12.428;2024-01-30T08:00:22;33.80;;;27.30;;
55222;SDS011;41090;48.632;12.428;2024-01-30T08:02:47;32.47;;;26.57;;
55222;SDS011;41090;48.632;12.428;2024-01-30T08:05:13;32.00;;;27.00;;
55222;SDS011;41090;48.632;12.428;2024-01-30T08:07:40;31.10;;;27.70;;
55222;SDS011;41090;48.632;12.428;2024-01-30T08:10:05;29.93;;;25.80;;
55222;SDS011;41090;48.632;12.428;2024-01-30T08:12:30;28.00;;;25.00;;
55222;SDS011;41090;48.632;12.428;2024-01-30T08:14:56;28.10;;;25.10;;
55222;SDS011;41090;48.632;12.428;2024-01-30T08:17:21;28.50;;;25.50;;
55222;SDS011;41090;48.632;12.428;2024-01-30T08:19:46;27.23;;;24.47;;
55222;SDS011;41090;48.632;12.428;2024-01-30T08:22:11;26.47;;;23.87;;
55222;SDS011;41090;48.632;12.428;2024-01-30T08:24:37;28.63;;;24.13;;
55222;SDS011;41090;48.632;12.428;2024-01-30T08:27:02;27.83;;;24.87;;
55222;SDS011;41090;48.632;12.428;2024-01-30T08:29:28;28.03;;;25.00;;
55222;SDS011;41090;48.632;12.428;2024-01-30T08:31:53;29.10;;;26.00;;
55222;SDS011;41090;48.632;12.428;2024-01-30T08:34:20;29.23;;;26.13;;
55222;SDS011;41090;48.632;12.428;2024-01-30T08:36:45;29.03;;;25.93;;
55222;SDS011;41090;48.632;12.428;2024-01-30T08:39:11;29.63;;;26.20;;
55222;SDS011;41090;48.632;12.428;2024-01-30T08:41:36;26.83;;;24.20;;
55222;SDS011;41090;48.632;12.428;2024-01-30T08:44:01;31.67;;;28.40;;
55222;SDS011;41090;48.632;12.428;2024-01-30T08:46:26;33.53;;;30.10;;
55222;SDS011;41090;48.632;12.428;2024-01-30T08:48:51;36.83;;;32.93;;
55222;SDS011;41090;48.632;12.428;2024-01-30T08:51:17;32.87;;;29.57;;
55222;SDS011;41090;48.632;12.428;2024-01-30T08:53:42;34.90;;;31.20;;
55222;SDS011;41090;48.632;12.428;2024-01-30T08:56:08;37.90;;;33.97;;
55222;SDS011;41090;48.632;12.428;2024-01-30T08:58:33;35.97;;;32.20;;
55222;SDS011;41090;48.632;12.428;2024-01-30T09:00:58;35.70;;;32.00;;
55222;SDS011;41090;48.632;12.428;2024-01-30T09:03:23;28.90;;;26.03;;
55222;SDS011;41090;48.632;12.428;2024-01-30T09:05:49;29.43;;;26.70;;
55222;SDS011;41090;48.632;12.428;2024-01-30T09:08:14;28.00;;;25.20;;
55222;SDS011;41090;48.632;12.428;2024-01-30T09:10:39;28.50;;;25.70;;
55222;SDS011;41090;48.632;12.428;2024-01-30T09:13:06;28.50;;;25.80;;
55222;SDS011;41090;48.632;12.428;2024-01-30T09:15:31;29.63;;;26.73;;
55222;SDS011;41090;48.632;12.428;2024-01-30T09:17:56;28.50;;;25.93;;
55222;SDS011;41090;48.632;12.428;2024-01-30T09:20:21;28.93;;;26.13;;
55222;SDS011;41090;48.632;12.428;2024-01-30T09:22:48;26.83;;;24.33;;
55222;SDS011;41090;48.632;12.428;2024-01-30T09:25:14;26.17;;;23.77;;
55222;SDS011;41090;48.632;12.428;2024-01-30T09:27:39;26.47;;;23.97;;
55222;SDS011;41090;48.632;12.428;2024-01-30T09:30:05;25.57;;;23.27;;
55222;SDS011;41090;48.632;12.428;2024-01-30T09:32:30;26.60;;;24.07;;
55222;SDS011;41090;48.632;12.428;2024-01-30T09:34:56;25.17;;;22.87;;
55222;SDS011;41090;48.632;12.428;2024-01-30T09:37:21;23.67;;;21.37;;
55222;SDS011;41090;48.632;12.428;2024-01-30T09:39:46;26.13;;;23.50;;
55222;SDS011;41090;48.632;12.428;2024-01-30T09:42:13;26.03;;;23.63;;
55222;SDS011;41090;48.632;12.428;2024-01-30T09:44:39;25.77;;;23.27;;
55222;SDS011;41090;48.632;12.428;2024-01-30T09:47:07;25.80;;;23.30;;
55222;SDS011;41090;48.632;12.428;2024-01-30T09:49:33;25.70;;;23.40;;
55222;SDS011;41090;48.632;12.428;2024-01-30T09:51:59;25.97;;;23.37;;
55222;SDS011;41090;48.632;12.428;2024-01-30T09:54:24;25.57;;;23.17;;
55222;SDS011;41090;48.632;12.428;2024-01-30T09:56:49;25.23;;;23.03;;
55222;SDS011;41090;48.632;12.428;2024-01-30T09:59:15;24.83;;;22.63;;
55222;SDS011;41090;48.632;12.428;2024-01-30T10:01:40;24.33;;;21.80;;
55222;SDS011;41090;48.632;12.428;2024-01-30T10:04:05;25.60;;;23.30;;
55222;SDS011;41090;48.632;12.428;2024-01-30T10:06:32;24.23;;;22.13;;
55222;SDS011;41090;48.632;12.428;2024-01-30T10:08:57;25.53;;;23.13;;
55222;SDS011;41090;48.632;12.428;2024-01-30T10:11:22;26.10;;;23.70;;
55222;SDS011;41090;48.632;12.428;2024-01-30T10:13:48;25.13;;;22.73;;
55222;SDS011;41090;48.632;12.428;2024-01-30T10:16:14;27.40;;;24.80;;
55222;SDS011;41090;48.632;12.428;2024-01-30T10:18:40;27.20;;;24.67;;
55222;SDS011;41090;48.632;12.428;2024-01-30T10:21:06;26.97;;;24.50;;
55222;SDS011;41090;48.632;12.428;2024-01-30T10:23:32;26.80;;;24.27;;
55222;SDS011;41090;48.632;12.428;2024-01-30T10:25:57;27.35;;;24.80;;
55222;SDS011;41090;48.632;12.428;2024-01-30T10:28:22;26.13;;;23.73;;
55222;SDS011;41090;48.632;12.428;2024-01-30T10:30:56;24.20;;;21.88;;
55222;SDS011;41090;48.632;12.428;2024-01-30T10:33:22;23.65;;;21.55;;
55222;SDS011;41090;48.632;12.428;2024-01-30T10:35:48;23.70;;;21.55;;
55222;SDS011;41090;48.632;12.428;2024-01-30T10:38:14;23.90;;;21.60;;
55222;SDS011;41090;48.632;12.428;2024-01-30T10:40:40;23.88;;;21.88;;
55222;SDS011;41090;48.632;12.428;2024-01-30T10:43:07;22.95;;;20.90;;
55222;SDS011;41090;48.632;12.428;2024-01-30T10:45:35;23.67;;;21.65;;
55222;SDS011;41090;48.632;12.428;2024-01-30T10:48:03;24.02;;;21.73;;
55222;SDS011;41090;48.632;12.428;2024-01-30T10:50:30;22.55;;;20.58;;
55222;SDS011;41090;48.632;12.428;2024-01-30T10:53:02;21.90;;;20.00;;
55222;SDS011;41090;48.632;12.428;2024-01-30T10:55:27;21.73;;;19.88;;
55222;SDS011;41090;48.632;12.428;2024-01-30T10:57:53;21.08;;;19.20;;
55222;SDS011;41090;48.632;12.428;2024-01-30T11:00:19;22.98;;;20.63;;
55222;SDS011;41090;48.632;12.428;2024-01-30T11:02:48;21.50;;;19.60;;
55222;SDS011;41090;48.632;12.428;2024-01-30T11:05:13;21.05;;;19.25;;
55222;SDS011;41090;48.632;12.428;2024-01-30T11:07:41;20.77;;;18.80;;
55222;SDS011;41090;48.632;12.428;2024-01-30T11:10:07;20.75;;;18.95;;
55222;SDS011;41090;48.632;12.428;2024-01-30T11:12:37;20.65;;;18.58;;
55222;SDS011;41090;48.632;12.428;2024-01-30T11:20:09;19.35;;;17.65;;
55222;SDS011;41090;48.632;12.428;2024-01-30T11:22:34;20.48;;;18.67;;
55222;SDS011;41090;48.632;12.428;2024-01-30T11:25:01;19.58;;;17.77;;
55222;SDS011;41090;48.632;12.428;2024-01-30T11:27:28;20.60;;;18.83;;
55222;SDS011;41090;48.632;12.428;2024-01-30T11:29:53;20.10;;;18.40;;
55222;SDS011;41090;48.632;12.428;2024-01-30T11:32:22;19.83;;;18.02;;
55222;SDS011;41090;48.632;12.428;2024-01-30T11:34:50;19.85;;;18.15;;
55222;SDS011;41090;48.632;12.428;2024-01-30T11:37:15;18.92;;;17.23;;
55222;SDS011;41090;48.632;12.428;2024-01-30T11:39:41;18.70;;;17.10;;
55222;SDS011;41090;48.632;12.428;2024-01-30T11:42:07;19.33;;;17.52;;
55222;SDS011;41090;48.632;12.428;2024-01-30T11:44:33;18.15;;;16.55;;
55222;SDS011;41090;48.632;12.428;2024-01-30T11:46:59;18.05;;;16.52;;
55222;SDS011;41090;48.632;12.428;2024-01-30T11:49:24;18.80;;;17.10;;
55222;SDS011;41090;48.632;12.428;2024-01-30T11:51:49;18.83;;;17.23;;
55222;SDS011;41090;48.632;12.428;2024-01-30T11:54:15;19.88;;;17.98;;
55222;SDS011;41090;48.632;12.428;2024-01-30T11:56:41;19.77;;;17.90;;
55222;SDS011;41090;48.632;12.428;2024-01-30T11:59:06;19.75;;;18.02;;
55222;SDS011;41090;48.632;12.428;2024-01-30T12:01:32;20.08;;;18.45;;
55222;SDS011;41090;48.632;12.428;2024-01-30T12:03:58;20.17;;;18.48;;
55222;SDS011;41090;48.632;12.428;2024-01-30T12:06:23;20.08;;;18.25;;
55222;SDS011;41090;48.632;12.428;2024-01-30T12:08:56;21.45;;;19.58;;
55222;SDS011;41090;48.632;12.428;2024-01-30T12:11:21;22.98;;;20.70;;
55222;SDS011;41090;48.632;12.428;2024-01-30T12:13:46;23.40;;;21.02;;
55222;SDS011;41090;48.632;12.428;2024-01-30T12:16:12;19.98;;;18.27;;
55222;SDS011;41090;48.632;12.428;2024-01-30T12:18:38;22.27;;;20.35;;
55222;SDS011;41090;48.632;12.428;2024-01-30T12:21:03;20.10;;;18.35;;
55222;SDS011;41090;48.632;12.428;2024-01-30T12:23:29;21.60;;;19.60;;
55222;SDS011;41090;48.632;12.428;2024-01-30T12:25:54;19.67;;;17.88;;
55222;SDS011;41090;48.632;12.428;2024-01-30T12:28:20;20.20;;;18.38;;
55222;SDS011;41090;48.632;12.428;2024-01-30T12:30:45;18.90;;;17.20;;
55222;SDS011;41090;48.632;12.428;2024-01-30T12:33:15;20.50;;;18.70;;
55222;SDS011;41090;48.632;12.428;2024-01-30T12:35:41;20.98;;;18.90;;
55222;SDS011;41090;48.632;12.428;2024-01-30T12:38:10;19.75;;;18.00;;
55222;SDS011;41090;48.632;12.428;2024-01-30T12:40:35;20.55;;;18.65;;
55222;SDS011;41090;48.632;12.428;2024-01-30T12:43:00;20.35;;;18.42;;
55222;SDS011;41090;48.632;12.428;2024-01-30T12:45:26;18.75;;;17.05;;
55222;SDS011;41090;48.632;12.428;2024-01-30T12:47:51;19.75;;;17.85;;
55222;SDS011;41090;48.632;12.428;2024-01-30T12:50:16;19.00;;;17.20;;
55222;SDS011;41090;48.632;12.428;2024-01-30T12:52:42;18.55;;;16.95;;
55222;SDS011;41090;48.632;12.428;2024-01-30T12:55:08;18.02;;;16.40;;
55222;SDS011;41090;48.632;12.428;2024-01-30T12:57:33;18.77;;;17.08;;
55222;SDS011;41090;48.632;12.428;2024-01-30T12:59:58;18.73;;;17.02;;
55222;SDS011;41090;48.632;12.428;2024-01-30T13:02:23;19.63;;;17.83;;
55222;SDS011;41090;48.632;12.428;2024-01-30T13:04:49;19.25;;;17.30;;
55222;SDS011;41090;48.632;12.428;2024-01-30T13:07:14;17.92;;;16.40;;
55222;SDS011;41090;48.632;12.428;2024-01-30T13:09:40;18.27;;;16.40;;
55222;SDS011;41090;48.632;12.428;2024-01-30T13:12:05;16.98;;;15.45;;
55222;SDS011;41090;48.632;12.428;2024-01-30T13:14:30;21.50;;;17.50;;
55222;SDS011;41090;48.632;12.428;2024-01-30T13:16:56;19.05;;;17.25;;
55222;SDS011;41090;48.632;12.428;2024-01-30T13:19:21;19.05;;;17.45;;
55222;SDS011;41090;48.632;12.428;2024-01-30T13:21:46;19.83;;;17.92;;
55222;SDS011;41090;48.632;12.428;2024-01-30T13:24:12;20.05;;;18.02;;
55222;SDS011;41090;48.632;12.428;2024-01-30T13:26:38;20.63;;;18.60;;
55222;SDS011;41090;48.632;12.428;2024-01-30T13:29:03;20.73;;;18.63;;
55222;SDS011;41090;48.632;12.428;2024-01-30T13:31:28;20.27;;;18.47;;
55222;SDS011;41090;48.632;12.428;2024-01-30T13:33:54;22.10;;;19.90;;
55222;SDS011;41090;48.632;12.428;2024-01-30T13:36:19;21.87;;;19.67;;
55222;SDS011;41090;48.632;12.428;2024-01-30T13:38:45;22.90;;;20.47;;
55222;SDS011;41090;48.632;12.428;2024-01-30T13:41:10;22.27;;;19.83;;
55222;SDS011;41090;48.632;12.428;2024-01-30T13:43:35;22.47;;;20.07;;
55222;SDS011;41090;48.632;12.428;2024-01-30T13:46:00;22.97;;;20.57;;
55222;SDS011;41090;48.632;12.428;2024-01-30T13:48:26;25.30;;;22.60;;
55222;SDS011;41090;48.632;12.428;2024-01-30T13:50:51;22.40;;;20.10;;
55222;SDS011;41090;48.632;12.428;2024-01-30T13:53:18;23.00;;;20.60;;
55222;SDS011;41090;48.632;12.428;2024-01-30T13:55:43;21.77;;;19.57;;
55222;SDS011;41090;48.632;12.428;2024-01-30T13:58:08;22.23;;;19.17;;
55222;SDS011;41090;48.632;12.428;2024-01-30T14:00:33;20.47;;;18.40;;
55222;SDS011;41090;48.632;12.428;2024-01-30T14:02:59;20.73;;;18.67;;
55222;SDS011;41090;48.632;12.428;2024-01-30T14:05:24;20.53;;;18.40;;